Fairfield, Utah
Current Conditions -  °F | °C
As of 9:15 PM on Tuesday 27 Jan 2015 (Local Time) from KPVU Reporting Station
Clear Clear  
Wind Chill: 34°   Ceiling: Unl
Heat Index: 39°   Visibility: 10mi
Dew Point: 34°   Wind: 7mph
Humidity: 81%   Direction: 110°ESE
Pressure: 30.19"   Gusts: NA
Location:  40.1341°N, 112.043°W
Report Text: KPVU 280415Z AUTO 11006KT 10SM CLR 04/01 A3019 RMK AO1
Loading
Personal Weather Stations






























Interactive Weather Map New forecast layout! Learn more

10-Day Weather Forecast

Advertisements
Track Severe Weather on mobile